sensor_id;sensor_type;location;lat;lon;timestamp;P1;durP1;ratioP1;P2;durP2;ratioP2
17650;SDS011;26663;59.302;18.082;2023-03-01T00:02:39;2.03;;;1.00;;
17650;SDS011;26663;59.302;18.082;2023-03-01T00:05:44;2.43;;;1.00;;
17650;SDS011;26663;59.302;18.082;2023-03-01T00:08:50;2.50;;;1.03;;
17650;SDS011;26663;59.302;18.082;2023-03-01T00:11:55;1.87;;;1.00;;
17650;SDS011;26663;59.302;18.082;2023-03-01T00:15:00;4.13;;;1.37;;
17650;SDS011;26663;59.302;18.082;2023-03-01T00:18:13;4.43;;;1.13;;
17650;SDS011;26663;59.302;18.082;2023-03-01T00:21:19;3.00;;;1.27;;
17650;SDS011;26663;59.302;18.082;2023-03-01T00:24:26;4.93;;;1.17;;
17650;SDS011;26663;59.302;18.082;2023-03-01T00:27:31;2.07;;;1.03;;
17650;SDS011;26663;59.302;18.082;2023-03-01T00:30:36;4.00;;;1.07;;
17650;SDS011;26663;59.302;18.082;2023-03-01T00:33:43;8.90;;;1.47;;
17650;SDS011;26663;59.302;18.082;2023-03-01T00:36:48;2.90;;;1.00;;
17650;SDS011;26663;59.302;18.082;2023-03-01T00:39:53;1.03;;;1.00;;
17650;SDS011;26663;59.302;18.082;2023-03-01T00:42:58;2.60;;;0.97;;
17650;SDS011;26663;59.302;18.082;2023-03-01T00:46:04;2.00;;;1.00;;
17650;SDS011;26663;59.302;18.082;2023-03-01T00:49:12;1.57;;;1.10;;
17650;SDS011;26663;59.302;18.082;2023-03-01T00:52:17;4.87;;;1.10;;
17650;SDS011;26663;59.302;18.082;2023-03-01T00:55:22;0.93;;;0.93;;
17650;SDS011;26663;59.302;18.082;2023-03-01T00:58:28;2.03;;;1.10;;
17650;SDS011;26663;59.302;18.082;2023-03-01T01:01:34;3.93;;;1.17;;
17650;SDS011;26663;59.302;18.082;2023-03-01T01:04:41;3.77;;;1.27;;
17650;SDS011;26663;59.302;18.082;2023-03-01T01:07:46;6.27;;;1.23;;
17650;SDS011;26663;59.302;18.082;2023-03-01T01:10:51;2.07;;;1.00;;
17650;SDS011;26663;59.302;18.082;2023-03-01T01:13:57;5.73;;;1.20;;
17650;SDS011;26663;59.302;18.082;2023-03-01T01:17:04;4.90;;;1.50;;
17650;SDS011;26663;59.302;18.082;2023-03-01T01:20:13;2.83;;;1.23;;
17650;SDS011;26663;59.302;18.082;2023-03-01T01:23:19;2.53;;;1.10;;
17650;SDS011;26663;59.302;18.082;2023-03-01T01:26:24;2.23;;;0.90;;
17650;SDS011;26663;59.302;18.082;2023-03-01T01:29:31;2.00;;;1.10;;
17650;SDS011;26663;59.302;18.082;2023-03-01T01:32:36;2.67;;;1.10;;
17650;SDS011;26663;59.302;18.082;2023-03-01T01:35:44;2.53;;;1.43;;
17650;SDS011;26663;59.302;18.082;2023-03-01T01:38:49;1.60;;;1.10;;
17650;SDS011;26663;59.302;18.082;2023-03-01T01:41:55;3.67;;;1.10;;
17650;SDS011;26663;59.302;18.082;2023-03-01T01:48:34;3.27;;;0.97;;
17650;SDS011;26663;59.302;18.082;2023-03-01T01:51:45;2.03;;;1.00;;
17650;SDS011;26663;59.302;18.082;2023-03-01T01:54:56;1.03;;;1.00;;
17650;SDS011;26663;59.302;18.082;2023-03-01T01:58:04;2.77;;;1.00;;
17650;SDS011;26663;59.302;18.082;2023-03-01T02:01:11;3.30;;;1.40;;
17650;SDS011;26663;59.302;18.082;2023-03-01T02:04:16;3.03;;;1.10;;
17650;SDS011;26663;59.302;18.082;2023-03-01T02:07:23;1.30;;;1.30;;
17650;SDS011;26663;59.302;18.082;2023-03-01T02:10:29;1.77;;;1.00;;
17650;SDS011;26663;59.302;18.082;2023-03-01T02:13:37;2.20;;;1.10;;
17650;SDS011;26663;59.302;18.082;2023-03-01T02:16:43;2.73;;;1.00;;
17650;SDS011;26663;59.302;18.082;2023-03-01T02:19:54;1.70;;;1.00;;
17650;SDS011;26663;59.302;18.082;2023-03-01T02:23:11;2.30;;;0.90;;
17650;SDS011;26663;59.302;18.082;2023-03-01T02:26:19;0.90;;;0.90;;
17650;SDS011;26663;59.302;18.082;2023-03-01T02:29:30;3.07;;;1.23;;
17650;SDS011;26663;59.302;18.082;2023-03-01T02:32:38;1.97;;;0.90;;
17650;SDS011;26663;59.302;18.082;2023-03-01T02:35:44;1.27;;;1.10;;
17650;SDS011;26663;59.302;18.082;2023-03-01T02:38:50;1.03;;;1.00;;
17650;SDS011;26663;59.302;18.082;2023-03-01T02:41:56;3.40;;;0.93;;
17650;SDS011;26663;59.302;18.082;2023-03-01T02:45:05;2.83;;;0.97;;
17650;SDS011;26663;59.302;18.082;2023-03-01T02:48:11;3.33;;;1.23;;
17650;SDS011;26663;59.302;18.082;2023-03-01T02:51:26;5.97;;;1.20;;
17650;SDS011;26663;59.302;18.082;2023-03-01T02:54:48;0.97;;;0.93;;
17650;SDS011;26663;59.302;18.082;2023-03-01T02:57:57;1.50;;;1.40;;
17650;SDS011;26663;59.302;18.082;2023-03-01T03:01:08;2.03;;;1.00;;
17650;SDS011;26663;59.302;18.082;2023-03-01T03:04:14;0.73;;;0.73;;
17650;SDS011;26663;59.302;18.082;2023-03-01T03:07:22;4.57;;;1.20;;
17650;SDS011;26663;59.302;18.082;2023-03-01T03:10:28;0.90;;;0.90;;
17650;SDS011;26663;59.302;18.082;2023-03-01T03:13:34;5.63;;;1.43;;
17650;SDS011;26663;59.302;18.082;2023-03-01T03:16:42;2.40;;;1.03;;
17650;SDS011;26663;59.302;18.082;2023-03-01T03:19:48;2.23;;;1.10;;
17650;SDS011;26663;59.302;18.082;2023-03-01T03:22:54;1.37;;;1.20;;
17650;SDS011;26663;59.302;18.082;2023-03-01T03:26:00;1.20;;;1.10;;
17650;SDS011;26663;59.302;18.082;2023-03-01T03:29:07;1.60;;;1.00;;
17650;SDS011;26663;59.302;18.082;2023-03-01T03:32:13;1.63;;;1.10;;
17650;SDS011;26663;59.302;18.082;2023-03-01T03:35:19;1.40;;;1.30;;
17650;SDS011;26663;59.302;18.082;2023-03-01T03:38:26;0.80;;;0.80;;
17650;SDS011;26663;59.302;18.082;2023-03-01T03:41:34;1.10;;;1.00;;
17650;SDS011;26663;59.302;18.082;2023-03-01T03:44:39;1.77;;;1.00;;
17650;SDS011;26663;59.302;18.082;2023-03-01T03:47:45;1.13;;;1.13;;
17650;SDS011;26663;59.302;18.082;2023-03-01T03:50:52;2.27;;;0.90;;
17650;SDS011;26663;59.302;18.082;2023-03-01T03:53:58;1.07;;;0.87;;
17650;SDS011;26663;59.302;18.082;2023-03-01T03:57:03;1.60;;;0.97;;
17650;SDS011;26663;59.302;18.082;2023-03-01T04:00:11;1.90;;;1.00;;
17650;SDS011;26663;59.302;18.082;2023-03-01T04:03:19;1.20;;;1.20;;
17650;SDS011;26663;59.302;18.082;2023-03-01T04:06:24;2.47;;;1.10;;
17650;SDS011;26663;59.302;18.082;2023-03-01T04:09:30;2.07;;;1.13;;
17650;SDS011;26663;59.302;18.082;2023-03-01T04:12:35;1.10;;;0.90;;
17650;SDS011;26663;59.302;18.082;2023-03-01T04:15:41;1.00;;;1.00;;
17650;SDS011;26663;59.302;18.082;2023-03-01T04:18:48;1.20;;;1.10;;
17650;SDS011;26663;59.302;18.082;2023-03-01T04:21:53;1.33;;;1.00;;
17650;SDS011;26663;59.302;18.082;2023-03-01T04:24:58;0.80;;;0.80;;
17650;SDS011;26663;59.302;18.082;2023-03-01T04:28:04;2.03;;;1.00;;
17650;SDS011;26663;59.302;18.082;2023-03-01T04:31:11;1.00;;;1.00;;
17650;SDS011;26663;59.302;18.082;2023-03-01T04:34:19;1.17;;;1.07;;
17650;SDS011;26663;59.302;18.082;2023-03-01T04:37:25;2.77;;;1.00;;
17650;SDS011;26663;59.302;18.082;2023-03-01T04:40:33;1.13;;;1.00;;
17650;SDS011;26663;59.302;18.082;2023-03-01T04:43:38;1.27;;;1.20;;
17650;SDS011;26663;59.302;18.082;2023-03-01T04:46:44;1.17;;;0.87;;
17650;SDS011;26663;59.302;18.082;2023-03-01T04:49:50;1.47;;;1.07;;
17650;SDS011;26663;59.302;18.082;2023-03-01T04:52:55;1.70;;;0.97;;
17650;SDS011;26663;59.302;18.082;2023-03-01T04:56:03;0.80;;;0.80;;
17650;SDS011;26663;59.302;18.082;2023-03-01T04:59:10;1.00;;;1.00;;
17650;SDS011;26663;59.302;18.082;2023-03-01T05:02:15;1.37;;;0.87;;
17650;SDS011;26663;59.302;18.082;2023-03-01T05:05:23;1.10;;;1.00;;
17650;SDS011;26663;59.302;18.082;2023-03-01T05:08:29;1.93;;;0.90;;
17650;SDS011;26663;59.302;18.082;2023-03-01T05:11:36;1.10;;;1.00;;
17650;SDS011;26663;59.302;18.082;2023-03-01T05:14:41;2.17;;;1.00;;
17650;SDS011;26663;59.302;18.082;2023-03-01T05:17:47;1.00;;;1.00;;
17650;SDS011;26663;59.302;18.082;2023-03-01T05:20:53;1.13;;;0.80;;
17650;SDS011;26663;59.302;18.082;2023-03-01T05:24:01;2.23;;;0.83;;
17650;SDS011;26663;59.302;18.082;2023-03-01T05:27:06;1.60;;;1.00;;
17650;SDS011;26663;59.302;18.082;2023-03-01T05:30:12;2.00;;;1.10;;
17650;SDS011;26663;59.302;18.082;2023-03-01T05:33:17;0.97;;;0.90;;
17650;SDS011;26663;59.302;18.082;2023-03-01T05:36:25;0.80;;;0.80;;
17650;SDS011;26663;59.302;18.082;2023-03-01T05:39:31;1.30;;;1.00;;
17650;SDS011;26663;59.302;18.082;2023-03-01T05:42:37;1.63;;;0.87;;
17650;SDS011;26663;59.302;18.082;2023-03-01T05:45:42;0.80;;;0.80;;
17650;SDS011;26663;59.302;18.082;2023-03-01T05:48:47;0.80;;;0.80;;
17650;SDS011;26663;59.302;18.082;2023-03-01T05:51:53;1.27;;;0.80;;
17650;SDS011;26663;59.302;18.082;2023-03-01T05:54:59;0.80;;;0.80;;
17650;SDS011;26663;59.302;18.082;2023-03-01T05:58:05;1.17;;;1.00;;
17650;SDS011;26663;59.302;18.082;2023-03-01T06:01:11;5.93;;;1.10;;
17650;SDS011;26663;59.302;18.082;2023-03-01T06:04:19;0.97;;;0.97;;
17650;SDS011;26663;59.302;18.082;2023-03-01T06:07:26;1.07;;;0.80;;
17650;SDS011;26663;59.302;18.082;2023-03-01T06:10:31;2.10;;;0.90;;
17650;SDS011;26663;59.302;18.082;2023-03-01T06:13:36;0.87;;;0.87;;
17650;SDS011;26663;59.302;18.082;2023-03-01T06:16:41;1.57;;;0.90;;
17650;SDS011;26663;59.302;18.082;2023-03-01T06:19:46;0.80;;;0.73;;
17650;SDS011;26663;59.302;18.082;2023-03-01T06:22:57;1.00;;;0.87;;
17650;SDS011;26663;59.302;18.082;2023-03-01T06:26:05;0.80;;;0.80;;
17650;SDS011;26663;59.302;18.082;2023-03-01T06:29:11;4.07;;;0.80;;
17650;SDS011;26663;59.302;18.082;2023-03-01T06:32:20;3.30;;;0.90;;
17650;SDS011;26663;59.302;18.082;2023-03-01T06:35:26;1.50;;;0.80;;
17650;SDS011;26663;59.302;18.082;2023-03-01T06:38:34;0.90;;;0.90;;
17650;SDS011;26663;59.302;18.082;2023-03-01T06:41:39;0.83;;;0.83;;
17650;SDS011;26663;59.302;18.082;2023-03-01T06:44:45;1.13;;;1.13;;
17650;SDS011;26663;59.302;18.082;2023-03-01T06:47:50;0.70;;;0.70;;
17650;SDS011;26663;59.302;18.082;2023-03-01T06:50:57;1.57;;;0.90;;
17650;SDS011;26663;59.302;18.082;2023-03-01T06:54:04;0.80;;;0.80;;
17650;SDS011;26663;59.302;18.082;2023-03-01T06:57:10;0.80;;;0.80;;
17650;SDS011;26663;59.302;18.082;2023-03-01T07:00:15;1.13;;;1.03;;
17650;SDS011;26663;59.302;18.082;2023-03-01T07:03:22;0.90;;;0.90;;
17650;SDS011;26663;59.302;18.082;2023-03-01T07:06:27;1.00;;;0.80;;
17650;SDS011;26663;59.302;18.082;2023-03-01T07:09:34;0.90;;;0.90;;
17650;SDS011;26663;59.302;18.082;2023-03-01T07:12:41;1.37;;;0.80;;
17650;SDS011;26663;59.302;18.082;2023-03-01T07:15:47;1.87;;;1.03;;
17650;SDS011;26663;59.302;18.082;2023-03-01T07:18:52;1.80;;;0.80;;
17650;SDS011;26663;59.302;18.082;2023-03-01T07:21:57;0.80;;;0.80;;
17650;SDS011;26663;59.302;18.082;2023-03-01T07:25:04;1.10;;;0.80;;
17650;SDS011;26663;59.302;18.082;2023-03-01T07:28:10;1.60;;;1.00;;
17650;SDS011;26663;59.302;18.082;2023-03-01T07:31:16;0.80;;;0.80;;
17650;SDS011;26663;59.302;18.082;2023-03-01T07:34:20;1.20;;;0.80;;
17650;SDS011;26663;59.302;18.082;2023-03-01T07:37:26;2.23;;;0.93;;
17650;SDS011;26663;59.302;18.082;2023-03-01T07:40:33;0.80;;;0.80;;
17650;SDS011;26663;59.302;18.082;2023-03-01T07:43:38;0.90;;;0.90;;
17650;SDS011;26663;59.302;18.082;2023-03-01T07:46:43;0.90;;;0.90;;
17650;SDS011;26663;59.302;18.082;2023-03-01T07:49:48;0.80;;;0.80;;
17650;SDS011;26663;59.302;18.082;2023-03-01T07:52:53;1.50;;;0.93;;
17650;SDS011;26663;59.302;18.082;2023-03-01T07:56:05;0.90;;;0.90;;
17650;SDS011;26663;59.302;18.082;2023-03-01T07:59:12;1.90;;;1.13;;
17650;SDS011;26663;59.302;18.082;2023-03-01T08:02:16;1.60;;;1.17;;
17650;SDS011;26663;59.302;18.082;2023-03-01T08:05:22;0.80;;;0.80;;
17650;SDS011;26663;59.302;18.082;2023-03-01T08:08:27;2.20;;;0.80;;
17650;SDS011;26663;59.302;18.082;2023-03-01T08:11:33;1.03;;;0.80;;
17650;SDS011;26663;59.302;18.082;2023-03-01T08:14:38;0.90;;;0.90;;
17650;SDS011;26663;59.302;18.082;2023-03-01T08:17:44;0.80;;;0.80;;
17650;SDS011;26663;59.302;18.082;2023-03-01T08:20:49;1.17;;;0.80;;
17650;SDS011;26663;59.302;18.082;2023-03-01T08:23:54;0.77;;;0.77;;
17650;SDS011;26663;59.302;18.082;2023-03-01T08:27:00;0.80;;;0.80;;
17650;SDS011;26663;59.302;18.082;2023-03-01T08:30:06;0.70;;;0.70;;
17650;SDS011;26663;59.302;18.082;2023-03-01T08:33:12;3.50;;;0.90;;
17650;SDS011;26663;59.302;18.082;2023-03-01T08:36:20;2.90;;;1.10;;
17650;SDS011;26663;59.302;18.082;2023-03-01T08:39:26;1.57;;;0.80;;
17650;SDS011;26663;59.302;18.082;2023-03-01T08:42:32;3.10;;;0.90;;
17650;SDS011;26663;59.302;18.082;2023-03-01T08:45:38;1.90;;;0.93;;
17650;SDS011;26663;59.302;18.082;2023-03-01T08:48:43;2.10;;;0.97;;
17650;SDS011;26663;59.302;18.082;2023-03-01T08:51:48;0.97;;;0.97;;
17650;SDS011;26663;59.302;18.082;2023-03-01T08:54:54;0.80;;;0.80;;
17650;SDS011;26663;59.302;18.082;2023-03-01T08:58:00;1.90;;;0.90;;
17650;SDS011;26663;59.302;18.082;2023-03-01T09:01:09;1.70;;;1.00;;
17650;SDS011;26663;59.302;18.082;2023-03-01T09:04:14;2.47;;;1.37;;
17650;SDS011;26663;59.302;18.082;2023-03-01T09:07:20;1.17;;;0.90;;
17650;SDS011;26663;59.302;18.082;2023-03-01T09:10:30;1.37;;;0.90;;
17650;SDS011;26663;59.302;18.082;2023-03-01T09:13:37;1.13;;;0.90;;
17650;SDS011;26663;59.302;18.082;2023-03-01T09:16:45;2.00;;;0.93;;
17650;SDS011;26663;59.302;18.082;2023-03-01T09:19:51;1.10;;;1.00;;
17650;SDS011;26663;59.302;18.082;2023-03-01T09:22:56;2.00;;;1.00;;
17650;SDS011;26663;59.302;18.082;2023-03-01T09:26:02;1.23;;;0.90;;
17650;SDS011;26663;59.302;18.082;2023-03-01T09:29:10;2.90;;;1.13;;
17650;SDS011;26663;59.302;18.082;2023-03-01T09:32:15;4.23;;;0.90;;
17650;SDS011;26663;59.302;18.082;2023-03-01T09:35:20;6.80;;;1.17;;
17650;SDS011;26663;59.302;18.082;2023-03-01T09:38:26;4.73;;;1.30;;
17650;SDS011;26663;59.302;18.082;2023-03-01T09:41:36;1.43;;;1.00;;
17650;SDS011;26663;59.302;18.082;2023-03-01T09:44:53;1.50;;;1.20;;
17650;SDS011;26663;59.302;18.082;2023-03-01T09:48:01;2.33;;;1.20;;
17650;SDS011;26663;59.302;18.082;2023-03-01T09:51:12;2.37;;;1.30;;
17650;SDS011;26663;59.302;18.082;2023-03-01T09:54:21;1.43;;;1.20;;
17650;SDS011;26663;59.302;18.082;2023-03-01T09:57:28;1.20;;;1.10;;
17650;SDS011;26663;59.302;18.082;2023-03-01T10:00:41;2.83;;;1.00;;
17650;SDS011;26663;59.302;18.082;2023-03-01T10:03:52;1.80;;;0.97;;
17650;SDS011;26663;59.302;18.082;2023-03-01T10:07:17;1.20;;;1.10;;
17650;SDS011;26663;59.302;18.082;2023-03-01T10:10:28;0.90;;;0.90;;
17650;SDS011;26663;59.302;18.082;2023-03-01T10:13:40;6.13;;;1.13;;
17650;SDS011;26663;59.302;18.082;2023-03-01T10:16:53;2.30;;;1.20;;
17650;SDS011;26663;59.302;18.082;2023-03-01T10:23:31;2.10;;;0.90;;
17650;SDS011;26663;59.302;18.082;2023-03-01T10:26:39;1.37;;;0.80;;
17650;SDS011;26663;59.302;18.082;2023-03-01T10:29:53;1.83;;;1.00;;
17650;SDS011;26663;59.302;18.082;2023-03-01T10:33:03;0.93;;;0.90;;
17650;SDS011;26663;59.302;18.082;2023-03-01T10:36:13;1.00;;;1.00;;
17650;SDS011;26663;59.302;18.082;2023-03-01T10:39:19;5.27;;;1.27;;
17650;SDS011;26663;59.302;18.082;2023-03-01T10:42:29;0.70;;;0.70;;
17650;SDS011;26663;59.302;18.082;2023-03-01T10:45:35;0.97;;;0.90;;
17650;SDS011;26663;59.302;18.082;2023-03-01T10:48:43;2.43;;;0.90;;
17650;SDS011;26663;59.302;18.082;2023-03-01T10:51:52;0.80;;;0.80;;
17650;SDS011;26663;59.302;18.082;2023-03-01T10:54:58;0.77;;;0.77;;
17650;SDS011;26663;59.302;18.082;2023-03-01T10:58:09;2.60;;;0.97;;
17650;SDS011;26663;59.302;18.082;2023-03-01T11:01:25;4.90;;;1.20;;
17650;SDS011;26663;59.302;18.082;2023-03-01T11:04:35;1.00;;;1.00;;
17650;SDS011;26663;59.302;18.082;2023-03-01T11:07:46;5.10;;;0.90;;
17650;SDS011;26663;59.302;18.082;2023-03-01T11:10:52;1.67;;;0.90;;
17650;SDS011;26663;59.302;18.082;2023-03-01T11:14:13;2.93;;;1.30;;
17650;SDS011;26663;59.302;18.082;2023-03-01T11:17:29;1.00;;;1.00;;
17650;SDS011;26663;59.302;18.082;2023-03-01T11:20:56;1.03;;;1.03;;
17650;SDS011;26663;59.302;18.082;2023-03-01T11:24:03;1.13;;;0.87;;
17650;SDS011;26663;59.302;18.082;2023-03-01T11:27:17;1.13;;;1.13;;
17650;SDS011;26663;59.302;18.082;2023-03-01T11:30:24;3.53;;;1.20;;
17650;SDS011;26663;59.302;18.082;2023-03-01T11:33:33;1.93;;;1.03;;
17650;SDS011;26663;59.302;18.082;2023-03-01T11:36:44;5.40;;;1.00;;
17650;SDS011;26663;59.302;18.082;2023-03-01T11:39:53;0.90;;;0.90;;
17650;SDS011;26663;59.302;18.082;2023-03-01T11:43:05;4.23;;;1.00;;
17650;SDS011;26663;59.302;18.082;2023-03-01T11:50:01;1.10;;;0.83;;
17650;SDS011;26663;59.302;18.082;2023-03-01T11:53:23;1.00;;;0.90;;
17650;SDS011;26663;59.302;18.082;2023-03-01T11:56:38;1.10;;;1.10;;
17650;SDS011;26663;59.302;18.082;2023-03-01T11:59:58;5.13;;;1.07;;
17650;SDS011;26663;59.302;18.082;2023-03-01T12:06:42;0.70;;;0.70;;
17650;SDS011;26663;59.302;18.082;2023-03-01T12:09:59;0.80;;;0.80;;
17650;SDS011;26663;59.302;18.082;2023-03-01T12:13:40;0.80;;;0.80;;
17650;SDS011;26663;59.302;18.082;2023-03-01T12:17:05;1.30;;;1.20;;
17650;SDS011;26663;59.302;18.082;2023-03-01T12:20:25;0.90;;;0.90;;
17650;SDS011;26663;59.302;18.082;2023-03-01T12:23:42;1.10;;;1.00;;
17650;SDS011;26663;59.302;18.082;2023-03-01T12:27:15;0.83;;;0.80;;
17650;SDS011;26663;59.302;18.082;2023-03-01T12:30:33;2.43;;;1.00;;
17650;SDS011;26663;59.302;18.082;2023-03-01T12:33:45;0.73;;;0.73;;
17650;SDS011;26663;59.302;18.082;2023-03-01T12:37:11;2.37;;;0.93;;
17650;SDS011;26663;59.302;18.082;2023-03-01T12:40:35;0.90;;;0.87;;
17650;SDS011;26663;59.302;18.082;2023-03-01T12:43:56;1.40;;;0.83;;
17650;SDS011;26663;59.302;18.082;2023-03-01T12:47:07;0.90;;;0.90;;
17650;SDS011;26663;59.302;18.082;2023-03-01T12:50:28;2.87;;;0.80;;
17650;SDS011;26663;59.302;18.082;2023-03-01T12:53:39;0.70;;;0.70;;
17650;SDS011;26663;59.302;18.082;2023-03-01T12:56:45;2.80;;;0.80;;
17650;SDS011;26663;59.302;18.082;2023-03-01T13:00:01;0.80;;;0.80;;
17650;SDS011;26663;59.302;18.082;2023-03-01T13:03:16;1.23;;;1.03;;
17650;SDS011;26663;59.302;18.082;2023-03-01T13:06:29;0.93;;;0.80;;
17650;SDS011;26663;59.302;18.082;2023-03-01T13:09:48;3.60;;;1.10;;
17650;SDS011;26663;59.302;18.082;2023-03-01T13:16:41;0.70;;;0.70;;
17650;SDS011;26663;59.302;18.082;2023-03-01T13:19:55;2.93;;;0.70;;
17650;SDS011;26663;59.302;18.082;2023-03-01T13:23:02;0.80;;;0.80;;
17650;SDS011;26663;59.302;18.082;2023-03-01T13:26:11;0.83;;;0.83;;
17650;SDS011;26663;59.302;18.082;2023-03-01T13:29:25;0.67;;;0.67;;
17650;SDS011;26663;59.302;18.082;2023-03-01T13:32:33;3.10;;;0.70;;
17650;SDS011;26663;59.302;18.082;2023-03-01T13:35:48;1.20;;;1.20;;
17650;SDS011;26663;59.302;18.082;2023-03-01T13:38:55;1.27;;;1.10;;
17650;SDS011;26663;59.302;18.082;2023-03-01T13:42:00;1.50;;;0.97;;
17650;SDS011;26663;59.302;18.082;2023-03-01T13:45:15;2.00;;;0.97;;
17650;SDS011;26663;59.302;18.082;2023-03-01T13:48:25;0.80;;;0.80;;
17650;SDS011;26663;59.302;18.082;2023-03-01T13:51:35;3.53;;;0.77;;
17650;SDS011;26663;59.302;18.082;2023-03-01T13:54:41;3.40;;;0.83;;
17650;SDS011;26663;59.302;18.082;2023-03-01T13:57:47;4.40;;;1.10;;
17650;SDS011;26663;59.302;18.082;2023-03-01T14:00:57;2.20;;;1.00;;
17650;SDS011;26663;59.302;18.082;2023-03-01T14:04:17;3.67;;;0.80;;
17650;SDS011;26663;59.302;18.082;2023-03-01T14:07:24;0.87;;;0.87;;
17650;SDS011;26663;59.302;18.082;2023-03-01T14:10:35;4.53;;;0.90;;
17650;SDS011;26663;59.302;18.082;2023-03-01T14:13:48;0.60;;;0.60;;
17650;SDS011;26663;59.302;18.082;2023-03-01T14:17:14;0.70;;;0.70;;
17650;SDS011;26663;59.302;18.082;2023-03-01T14:20:41;2.57;;;0.80;;
17650;SDS011;26663;59.302;18.082;2023-03-01T14:23:48;1.90;;;0.80;;
17650;SDS011;26663;59.302;18.082;2023-03-01T14:26:53;0.57;;;0.57;;
17650;SDS011;26663;59.302;18.082;2023-03-01T14:29:59;8.63;;;1.00;;
17650;SDS011;26663;59.302;18.082;2023-03-01T14:33:05;1.55;;;0.80;;
17650;SDS011;26663;59.302;18.082;2023-03-01T14:36:26;2.40;;;0.90;;
17650;SDS011;26663;59.302;18.082;2023-03-01T14:39:33;0.70;;;0.70;;
17650;SDS011;26663;59.302;18.082;2023-03-01T14:42:43;0.90;;;0.90;;
17650;SDS011;26663;59.302;18.082;2023-03-01T14:45:50;0.80;;;0.80;;
17650;SDS011;26663;59.302;18.082;2023-03-01T14:48:56;4.32;;;0.90;;
17650;SDS011;26663;59.302;18.082;2023-03-01T14:52:07;0.75;;;0.75;;
17650;SDS011;26663;59.302;18.082;2023-03-01T14:55:25;0.85;;;0.75;;
17650;SDS011;26663;59.302;18.082;2023-03-01T14:58:32;6.15;;;1.00;;
17650;SDS011;26663;59.302;18.082;2023-03-01T15:01:38;1.17;;;0.80;;
17650;SDS011;26663;59.302;18.082;2023-03-01T15:04:44;4.13;;;1.00;;
17650;SDS011;26663;59.302;18.082;2023-03-01T15:07:52;1.85;;;0.90;;
17650;SDS011;26663;59.302;18.082;2023-03-01T15:10:59;1.00;;;0.70;;
17650;SDS011;26663;59.302;18.082;2023-03-01T15:17:31;1.05;;;0.88;;
17650;SDS011;26663;59.302;18.082;2023-03-01T15:20:37;3.22;;;1.90;;
17650;SDS011;26663;59.302;18.082;2023-03-01T15:23:47;2.50;;;2.30;;
17650;SDS011;26663;59.302;18.082;2023-03-01T15:26:56;3.30;;;1.60;;
17650;SDS011;26663;59.302;18.082;2023-03-01T15:30:04;3.78;;;1.50;;
17650;SDS011;26663;59.302;18.082;2023-03-01T15:33:26;7.10;;;1.20;;
17650;SDS011;26663;59.302;18.082;2023-03-01T15:36:37;2.00;;;1.00;;
17650;SDS011;26663;59.302;18.082;2023-03-01T15:39:52;1.50;;;1.00;;
17650;SDS011;26663;59.302;18.082;2023-03-01T15:42:58;1.63;;;1.23;;
17650;SDS011;26663;59.302;18.082;2023-03-01T15:46:04;9.18;;;1.77;;
17650;SDS011;26663;59.302;18.082;2023-03-01T15:49:23;5.43;;;1.20;;
17650;SDS011;26663;59.302;18.082;2023-03-01T15:52:54;3.00;;;1.00;;
17650;SDS011;26663;59.302;18.082;2023-03-01T15:56:03;0.80;;;0.80;;
17650;SDS011;26663;59.302;18.082;2023-03-01T15:59:10;6.63;;;1.10;;
17650;SDS011;26663;59.302;18.082;2023-03-01T16:02:17;4.75;;;1.08;;
17650;SDS011;26663;59.302;18.082;2023-03-01T16:05:24;2.07;;;0.80;;
17650;SDS011;26663;59.302;18.082;2023-03-01T16:08:31;2.73;;;1.07;;
17650;SDS011;26663;59.302;18.082;2023-03-01T16:11:38;0.90;;;0.90;;
17650;SDS011;26663;59.302;18.082;2023-03-01T16:14:45;3.43;;;0.93;;
17650;SDS011;26663;59.302;18.082;2023-03-01T16:17:51;11.53;;;0.90;;
17650;SDS011;26663;59.302;18.082;2023-03-01T16:20:56;4.20;;;1.20;;
17650;SDS011;26663;59.302;18.082;2023-03-01T16:24:02;1.93;;;0.83;;
17650;SDS011;26663;59.302;18.082;2023-03-01T16:27:11;4.28;;;0.93;;
17650;SDS011;26663;59.302;18.082;2023-03-01T16:30:19;0.83;;;0.83;;
17650;SDS011;26663;59.302;18.082;2023-03-01T16:33:25;2.53;;;0.90;;
17650;SDS011;26663;59.302;18.082;2023-03-01T16:36:35;1.13;;;0.93;;
17650;SDS011;26663;59.302;18.082;2023-03-01T16:39:41;2.20;;;0.90;;
17650;SDS011;26663;59.302;18.082;2023-03-01T16:42:48;3.50;;;0.97;;
17650;SDS011;26663;59.302;18.082;2023-03-01T16:45:53;0.87;;;0.83;;
17650;SDS011;26663;59.302;18.082;2023-03-01T16:48:58;4.53;;;0.77;;
17650;SDS011;26663;59.302;18.082;2023-03-01T16:52:04;1.60;;;0.90;;
17650;SDS011;26663;59.302;18.082;2023-03-01T16:55:09;6.60;;;1.17;;
17650;SDS011;26663;59.302;18.082;2023-03-01T16:58:17;4.10;;;1.60;;
17650;SDS011;26663;59.302;18.082;2023-03-01T17:01:22;2.77;;;1.30;;
17650;SDS011;26663;59.302;18.082;2023-03-01T17:04:28;0.90;;;0.90;;
17650;SDS011;26663;59.302;18.082;2023-03-01T17:07:34;3.77;;;1.33;;
17650;SDS011;26663;59.302;18.082;2023-03-01T17:10:40;13.70;;;1.97;;
17650;SDS011;26663;59.302;18.082;2023-03-01T17:13:46;9.47;;;4.17;;
17650;SDS011;26663;59.302;18.082;2023-03-01T17:16:52;4.80;;;4.00;;
17650;SDS011;26663;59.302;18.082;2023-03-01T17:19:57;3.20;;;2.63;;
17650;SDS011;26663;59.302;18.082;2023-03-01T17:23:07;1.50;;;1.40;;
17650;SDS011;26663;59.302;18.082;2023-03-01T17:26:13;13.67;;;1.63;;
17650;SDS011;26663;59.302;18.082;2023-03-01T17:29:20;1.70;;;1.70;;
17650;SDS011;26663;59.302;18.082;2023-03-01T17:32:25;3.57;;;2.40;;
17650;SDS011;26663;59.302;18.082;2023-03-01T17:35:30;2.30;;;2.10;;
17650;SDS011;26663;59.302;18.082;2023-03-01T17:38:39;3.57;;;1.20;;
17650;SDS011;26663;59.302;18.082;2023-03-01T17:41:44;1.37;;;0.80;;
17650;SDS011;26663;59.302;18.082;2023-03-01T17:44:51;2.47;;;1.00;;
17650;SDS011;26663;59.302;18.082;2023-03-01T17:47:57;3.47;;;1.20;;
17650;SDS011;26663;59.302;18.082;2023-03-01T17:51:07;3.07;;;1.10;;
17650;SDS011;26663;59.302;18.082;2023-03-01T17:54:16;0.83;;;0.83;;
17650;SDS011;26663;59.302;18.082;2023-03-01T17:57:21;8.33;;;1.10;;
17650;SDS011;26663;59.302;18.082;2023-03-01T18:00:28;6.63;;;1.13;;
17650;SDS011;26663;59.302;18.082;2023-03-01T18:03:33;3.00;;;0.90;;
17650;SDS011;26663;59.302;18.082;2023-03-01T18:06:40;7.63;;;1.20;;
17650;SDS011;26663;59.302;18.082;2023-03-01T18:09:45;1.27;;;0.90;;
17650;SDS011;26663;59.302;18.082;2023-03-01T18:12:50;4.50;;;1.67;;
17650;SDS011;26663;59.302;18.082;2023-03-01T18:15:57;2.13;;;1.03;;
17650;SDS011;26663;59.302;18.082;2023-03-01T18:19:03;4.83;;;1.13;;
17650;SDS011;26663;59.302;18.082;2023-03-01T18:22:11;3.87;;;0.93;;
17650;SDS011;26663;59.302;18.082;2023-03-01T18:25:16;2.27;;;1.03;;
17650;SDS011;26663;59.302;18.082;2023-03-01T18:28:22;2.77;;;0.80;;
17650;SDS011;26663;59.302;18.082;2023-03-01T18:31:29;0.80;;;0.80;;
17650;SDS011;26663;59.302;18.082;2023-03-01T18:34:35;2.10;;;1.00;;
17650;SDS011;26663;59.302;18.082;2023-03-01T18:37:40;1.80;;;1.43;;
17650;SDS011;26663;59.302;18.082;2023-03-01T18:40:50;3.17;;;1.13;;
17650;SDS011;26663;59.302;18.082;2023-03-01T18:43:55;2.97;;;1.33;;
17650;SDS011;26663;59.302;18.082;2023-03-01T18:47:02;1.07;;;1.00;;
17650;SDS011;26663;59.302;18.082;2023-03-01T18:50:10;1.50;;;0.97;;
17650;SDS011;26663;59.302;18.082;2023-03-01T18:53:15;4.63;;;1.00;;
17650;SDS011;26663;59.302;18.082;2023-03-01T18:56:21;4.17;;;1.33;;
17650;SDS011;26663;59.302;18.082;2023-03-01T18:59:26;4.27;;;0.77;;